createdAt,value
2023-05-04T00:01:02.919Z,100869.09
2023-05-04T00:04:06.086Z,100863.13
2023-05-04T00:07:10.083Z,100867.09
2023-05-04T00:10:13.540Z,100866.63
2023-05-04T00:13:16.637Z,100863.78
2023-05-04T00:16:19.621Z,100866.12
2023-05-04T00:19:22.420Z,100869.41
2023-05-04T00:22:25.641Z,100865.47
2023-05-04T00:25:28.180Z,100859.81
2023-05-04T00:28:33.034Z,100850.47
2023-05-04T00:31:35.645Z,100858.78
2023-05-04T00:34:38.401Z,100854.66
2023-05-04T00:37:41.047Z,100849.84
2023-05-04T00:40:44.306Z,100853.16
2023-05-04T00:43:47.521Z,100853.66
2023-05-04T00:46:52.570Z,100861.44
2023-05-04T00:49:55.975Z,100862.12
2023-05-04T00:53:01.536Z,100866.12
2023-05-04T00:56:06.217Z,100861.28
2023-05-04T00:59:09.760Z,100862.97
2023-05-04T01:02:12.376Z,100865.13
2023-05-04T01:05:15.562Z,100857.13
2023-05-04T01:08:21.614Z,100865.13
2023-05-04T01:11:33.804Z,100867.09
2023-05-04T01:14:37.312Z,100863.47
2023-05-04T01:17:40.273Z,100864.78
2023-05-04T01:20:44.333Z,100868.44
2023-05-04T01:23:47.182Z,100864.63
2023-05-04T01:26:55.728Z,100855.97
2023-05-04T01:30:22.664Z,100856.31
2023-05-04T01:33:28.242Z,100846.31
2023-05-04T01:36:32.964Z,100861.78
2023-05-04T01:39:35.797Z,100858.62
2023-05-04T01:42:38.621Z,100852.62
2023-05-04T01:45:41.142Z,100850.97
2023-05-04T01:48:44.121Z,100852.16
2023-05-04T01:51:46.882Z,100854.97
2023-05-04T01:54:49.783Z,100849.31
2023-05-04T01:57:52.362Z,100844.81
2023-05-04T02:00:59.222Z,100839.34
2023-05-04T02:04:03.438Z,100836.87
2023-05-04T02:07:06.190Z,100829.72
2023-05-04T02:10:09.991Z,100831.84
2023-05-04T02:13:13.792Z,100835.34
2023-05-04T02:16:17.052Z,100835.69
2023-05-04T02:19:20.012Z,100831.69
2023-05-04T02:22:22.810Z,100835.69
2023-05-04T02:25:27.651Z,100827.91
2023-05-04T02:28:31.072Z,100843.84
2023-05-04T02:31:34.258Z,100835.88
2023-05-04T02:34:37.526Z,100842.66
2023-05-04T02:37:40.312Z,100843.16
2023-05-04T02:40:43.364Z,100838.34
2023-05-04T02:43:46.754Z,100851.25
2023-05-04T02:46:49.228Z,100850.41
2023-05-04T02:49:52.145Z,100850.72
2023-05-04T02:52:54.657Z,100850.56
2023-05-04T02:55:57.603Z,100849.22
2023-05-04T02:59:00.161Z,100848.88
2023-05-04T03:02:03.114Z,100854.69
2023-05-04T03:05:06.497Z,100859.47
2023-05-04T03:08:09.379Z,100855.16
2023-05-04T03:11:16.489Z,100862.12
2023-05-04T03:14:19.396Z,100858.97
2023-05-04T03:17:21.971Z,100850.34
2023-05-04T03:20:25.433Z,100856.78
2023-05-04T03:23:28.057Z,100861.13
2023-05-04T03:26:31.786Z,100865.75
2023-05-04T03:29:34.369Z,100866.28
2023-05-04T03:32:37.704Z,100868.44
2023-05-04T03:35:40.327Z,100863.78
2023-05-04T03:38:43.290Z,100873.28
2023-05-04T03:41:46.015Z,100868.47
2023-05-04T03:44:48.989Z,100864.84
2023-05-04T03:47:51.569Z,100877.16
2023-05-04T03:50:58.183Z,100875.56
2023-05-04T03:54:01.470Z,100873.38
2023-05-04T03:57:04.573Z,100878.75
2023-05-04T04:00:09.063Z,100885.38
2023-05-04T04:03:17.681Z,100889.38
2023-05-04T04:06:20.790Z,100880.38
2023-05-04T04:09:23.500Z,100885.69
2023-05-04T04:12:27.401Z,100877.72
2023-05-04T04:15:29.913Z,100889.62
2023-05-04T04:18:33.090Z,100881.84
2023-05-04T04:21:36.234Z,100895.16
2023-05-04T04:24:39.097Z,100892.88
2023-05-04T04:27:41.692Z,100891.34
2023-05-04T04:30:48.833Z,100896.03
2023-05-04T04:33:51.542Z,100899.31
2023-05-04T04:36:54.450Z,100893.03
2023-05-04T04:39:56.985Z,100897.53
2023-05-04T04:42:59.999Z,100898.03
2023-05-04T04:46:04.094Z,100899.34
2023-05-04T04:49:07.286Z,100909.69
2023-05-04T04:52:11.836Z,100910.34
2023-05-04T04:55:16.895Z,100904.34
2023-05-04T04:58:19.410Z,100910.00
2023-05-04T05:01:22.739Z,100904.19
2023-05-04T05:04:25.310Z,100914.16
2023-05-04T05:07:28.247Z,100914.16
2023-05-04T05:10:38.664Z,100910.84
2023-05-04T05:13:41.619Z,100901.84
2023-05-04T05:16:44.234Z,100910.69
2023-05-04T05:19:47.174Z,100916.31
2023-05-04T05:22:50.427Z,100921.31
2023-05-04T05:25:53.338Z,100923.28
2023-05-04T05:28:57.005Z,100924.13
2023-05-04T05:31:59.859Z,100921.06
2023-05-04T05:35:02.335Z,100928.75
2023-05-04T05:38:05.415Z,100931.38
2023-05-04T05:41:09.810Z,100927.34
2023-05-04T05:44:13.352Z,100926.00
2023-05-04T05:47:15.882Z,100923.81
2023-05-04T05:50:19.054Z,100927.09
2023-05-04T05:53:21.535Z,100934.25
2023-05-04T05:56:24.401Z,100934.47
2023-05-04T05:59:27.680Z,100934.53
2023-05-04T06:02:30.584Z,100944.91
2023-05-04T06:05:36.530Z,100940.38
2023-05-04T06:08:39.065Z,100935.91
2023-05-04T06:11:42.712Z,100937.19
2023-05-04T06:14:45.325Z,100933.84
2023-05-04T06:17:49.937Z,100934.75
2023-05-04T06:21:01.332Z,100937.91
2023-05-04T06:24:04.548Z,100940.00
2023-05-04T06:27:07.425Z,100948.63
2023-05-04T06:30:11.995Z,100945.94
2023-05-04T06:33:17.710Z,100957.03
2023-05-04T06:36:20.580Z,100953.34
2023-05-04T06:39:23.268Z,100954.34
2023-05-04T06:42:29.604Z,100944.44
2023-05-04T06:45:36.204Z,100949.25
2023-05-04T06:48:39.080Z,100948.59
2023-05-04T06:51:42.008Z,100953.69
2023-05-04T06:54:44.757Z,100945.75
2023-05-04T06:57:47.349Z,100958.94
2023-05-04T07:00:51.369Z,100964.53
2023-05-04T07:03:54.036Z,100964.59
2023-05-04T07:06:57.299Z,100960.59
2023-05-04T07:10:00.183Z,100961.75
2023-05-04T07:13:03.594Z,100952.63
2023-05-04T07:16:09.453Z,100953.84
2023-05-04T07:19:12.655Z,100956.44
2023-05-04T07:22:15.325Z,100948.44
2023-05-04T07:25:18.140Z,100956.22
2023-05-04T07:28:20.684Z,100959.16
2023-05-04T07:31:23.733Z,100955.72
2023-05-04T07:34:37.816Z,100953.13
2023-05-04T07:37:45.145Z,100946.88
2023-05-04T07:40:48.858Z,100957.31
2023-05-04T07:43:51.847Z,100959.28
2023-05-04T07:46:54.376Z,100953.25
2023-05-04T07:49:57.241Z,100957.91
2023-05-04T07:52:59.887Z,100950.66
2023-05-04T07:56:11.384Z,100953.03
2023-05-04T07:59:13.913Z,100958.59
2023-05-04T08:02:16.845Z,100955.66
2023-05-04T08:05:19.773Z,100955.16
2023-05-04T08:08:22.568Z,100946.94
2023-05-04T08:11:26.793Z,100957.31
2023-05-04T08:14:29.634Z,100959.00
2023-05-04T08:17:32.916Z,100956.94
2023-05-04T08:20:36.034Z,100959.53
2023-05-04T08:23:38.920Z,100951.59
2023-05-04T08:26:42.529Z,100960.69
2023-05-04T08:29:46.812Z,100953.66
2023-05-04T08:32:51.423Z,100959.16
2023-05-04T08:35:54.180Z,100962.44
2023-05-04T08:38:56.835Z,100954.38
2023-05-04T08:42:00.676Z,100955.00
2023-05-04T08:45:07.290Z,100971.00
2023-05-04T08:48:10.237Z,100963.31
2023-05-04T08:51:14.208Z,100960.03
2023-05-04T08:54:17.995Z,100960.78
2023-05-04T08:57:22.996Z,100960.00
2023-05-04T09:00:26.590Z,100964.09
2023-05-04T09:03:30.321Z,100963.56
2023-05-04T09:06:33.702Z,100965.87
2023-05-04T09:09:36.424Z,100956.47
2023-05-04T09:12:39.389Z,100951.75
2023-05-04T09:15:42.368Z,100957.34
2023-05-04T09:18:45.988Z,100962.94
2023-05-04T09:21:49.836Z,100953.09
2023-05-04T09:24:52.802Z,100950.34
2023-05-04T09:27:56.428Z,100950.25
2023-05-04T09:31:01.272Z,100939.78
2023-05-04T09:34:10.144Z,100951.09
2023-05-04T09:37:13.440Z,100950.84
2023-05-04T09:40:16.378Z,100940.44
2023-05-04T09:43:21.030Z,100951.03
2023-05-04T09:46:23.704Z,100945.91
2023-05-04T09:49:37.276Z,100943.13
2023-05-04T09:52:44.333Z,100941.06
2023-05-04T09:55:51.803Z,100937.97
2023-05-04T09:58:59.774Z,100931.28
2023-05-04T10:02:14.518Z,100933.75
2023-05-04T10:05:25.242Z,100930.06
2023-05-04T10:08:28.876Z,100922.66
2023-05-04T10:11:32.753Z,100920.19
2023-05-04T10:14:36.253Z,100922.53
2023-05-04T10:18:15.217Z,100918.37
2023-05-04T10:21:58.219Z,100915.06
2023-05-04T10:25:14.521Z,100914.25
2023-05-04T10:28:23.420Z,100912.00
2023-05-04T10:31:42.876Z,100901.69
2023-05-04T10:34:45.632Z,100892.28
2023-05-04T10:37:54.552Z,100895.91
2023-05-04T10:40:58.411Z,100889.69
2023-05-04T10:44:06.194Z,100889.34
2023-05-04T10:47:08.748Z,100887.78
2023-05-04T10:50:14.648Z,100894.06
2023-05-04T10:53:18.721Z,100886.75
2023-05-04T10:56:23.063Z,100885.38
2023-05-04T10:59:25.720Z,100877.09
2023-05-04T11:02:30.975Z,100867.13
2023-05-04T11:05:45.609Z,100866.09
2023-05-04T11:08:58.367Z,100862.22
2023-05-04T11:12:01.199Z,100844.28
2023-05-04T11:15:09.134Z,100849.44
2023-05-04T11:18:11.884Z,100848.78
2023-05-04T11:21:24.755Z,100842.22
2023-05-04T11:24:28.825Z,100838.34
2023-05-04T11:27:31.714Z,100833.59
2023-05-04T11:30:35.742Z,100820.59
2023-05-04T11:33:38.731Z,100825.81
2023-05-04T11:36:41.330Z,100820.25
2023-05-04T11:39:44.480Z,100816.13
2023-05-04T11:42:48.443Z,100814.72
2023-05-04T11:45:52.699Z,100808.88
2023-05-04T11:48:55.178Z,100805.34
2023-05-04T11:52:08.700Z,100798.72
2023-05-04T11:55:13.831Z,100793.53
2023-05-04T11:58:25.011Z,100796.25
2023-05-04T12:01:34.915Z,100796.84
2023-05-04T12:04:40.024Z,100791.66
2023-05-04T12:07:42.837Z,100794.00
2023-05-04T12:10:47.593Z,100795.28
2023-05-04T12:14:05.294Z,100792.63
2023-05-04T12:17:08.077Z,100789.25
2023-05-04T12:20:24.178Z,100778.97
2023-05-04T12:23:27.237Z,100780.56
2023-05-04T12:26:30.401Z,100778.84
2023-05-04T12:29:33.221Z,100770.47
2023-05-04T12:32:35.858Z,100773.69
2023-05-04T12:35:38.812Z,100777.00
2023-05-04T12:38:41.364Z,100774.91
2023-05-04T12:41:44.215Z,100776.47
2023-05-04T12:44:47.110Z,100768.75
2023-05-04T12:47:52.800Z,100766.25
2023-05-04T12:50:56.088Z,100757.06
2023-05-04T12:53:59.015Z,100757.38
2023-05-04T12:57:02.421Z,100753.28
2023-05-04T13:00:09.507Z,100747.47
2023-05-04T13:03:13.179Z,100750.50
2023-05-04T13:06:16.305Z,100746.88
2023-05-04T13:09:22.350Z,100744.00
2023-05-04T13:12:27.795Z,100744.03
2023-05-04T13:15:30.978Z,100737.88
2023-05-04T13:18:33.829Z,100746.41
2023-05-04T13:21:36.667Z,100738.09
2023-05-04T13:24:42.232Z,100730.91
2023-05-04T13:27:44.887Z,100719.56
2023-05-04T13:30:48.347Z,100722.28
2023-05-04T13:33:51.075Z,100718.94
2023-05-04T13:36:54.307Z,100717.22
2023-05-04T13:39:56.951Z,100708.25
2023-05-04T13:43:01.762Z,100700.56
2023-05-04T13:46:04.607Z,100711.19
2023-05-04T13:49:07.681Z,100697.66
2023-05-04T13:52:10.724Z,100695.56
2023-05-04T13:55:14.336Z,100696.94
2023-05-04T13:58:17.170Z,100698.09
2023-05-04T14:01:20.444Z,100696.12
2023-05-04T14:04:23.889Z,100683.47
2023-05-04T14:07:26.462Z,100688.78
2023-05-04T14:10:30.131Z,100692.72
2023-05-04T14:13:32.847Z,100695.81
2023-05-04T14:16:37.472Z,100694.47
2023-05-04T14:19:40.380Z,100691.13
2023-05-04T14:22:43.772Z,100688.69
2023-05-04T14:25:53.386Z,100691.41
2023-05-04T14:28:56.837Z,100693.84
2023-05-04T14:31:59.555Z,100689.66
2023-05-04T14:35:08.144Z,100689.31
2023-05-04T14:38:11.864Z,100683.56
2023-05-04T14:41:15.390Z,100684.06
2023-05-04T14:44:17.989Z,100679.53
2023-05-04T14:47:20.915Z,100676.81
2023-05-04T14:50:26.838Z,100679.56
2023-05-04T14:53:33.295Z,100676.56
2023-05-04T14:56:36.250Z,100671.34
2023-05-04T14:59:39.709Z,100670.53
2023-05-04T15:02:42.565Z,100670.56
2023-05-04T15:05:45.487Z,100671.97
2023-05-04T15:08:48.115Z,100672.06
2023-05-04T15:11:51.043Z,100669.06
2023-05-04T15:14:53.629Z,100673.06
2023-05-04T15:17:56.718Z,100669.88
2023-05-04T15:21:01.429Z,100670.59
2023-05-04T15:24:04.741Z,100673.50
2023-05-04T15:27:07.326Z,100668.88
2023-05-04T15:30:11.497Z,100664.72
2023-05-04T15:33:14.261Z,100671.50
2023-05-04T15:36:17.149Z,100665.03
2023-05-04T15:39:19.728Z,100664.66
2023-05-04T15:42:22.657Z,100666.78
2023-05-04T15:45:25.789Z,100667.72
2023-05-04T15:48:28.717Z,100661.31
2023-05-04T15:51:31.965Z,100667.22
2023-05-04T15:54:35.235Z,100651.75
2023-05-04T15:57:37.776Z,100661.19
2023-05-04T16:00:41.657Z,100659.59
2023-05-04T16:03:45.817Z,100663.69
2023-05-04T16:06:48.473Z,100659.59
2023-05-04T16:09:51.720Z,100657.06
2023-05-04T16:12:54.395Z,100652.41
2023-05-04T16:15:58.030Z,100650.00
2023-05-04T16:19:00.721Z,100650.69
2023-05-04T16:22:03.574Z,100658.78
2023-05-04T16:25:08.266Z,100651.59
2023-05-04T16:28:12.564Z,100649.91
2023-05-04T16:31:15.820Z,100657.47
2023-05-04T16:34:18.812Z,100657.28
2023-05-04T16:37:21.458Z,100662.88
2023-05-04T16:40:25.119Z,100667.22
2023-05-04T16:43:27.692Z,100664.16
2023-05-04T16:46:30.497Z,100669.62
2023-05-04T16:49:33.192Z,100669.94
2023-05-04T16:52:36.486Z,100674.44
2023-05-04T16:55:39.174Z,100673.59
2023-05-04T16:58:41.966Z,100676.06
2023-05-04T17:01:44.601Z,100673.00
2023-05-04T17:04:47.685Z,100674.75
2023-05-04T17:07:50.336Z,100670.69
2023-05-04T17:10:58.910Z,100682.22
2023-05-04T17:14:01.650Z,100683.75
2023-05-04T17:17:04.523Z,100683.78
2023-05-04T17:20:09.499Z,100691.41
2023-05-04T17:23:14.628Z,100692.28
2023-05-04T17:26:17.210Z,100697.03
2023-05-04T17:29:20.158Z,100694.97
2023-05-04T17:32:22.795Z,100694.56
2023-05-04T17:35:26.743Z,100698.47
2023-05-04T17:38:29.562Z,100703.81
2023-05-04T17:41:33.077Z,100702.56
2023-05-04T17:44:35.595Z,100712.03
2023-05-04T17:47:38.485Z,100709.53
2023-05-04T17:50:41.323Z,100713.44
2023-05-04T17:53:44.400Z,100723.91
2023-05-04T17:56:46.976Z,100729.50
2023-05-04T17:59:49.986Z,100728.22
2023-05-04T18:02:52.598Z,100734.78
2023-05-04T18:05:55.469Z,100737.25
2023-05-04T18:08:58.797Z,100745.09
2023-05-04T18:12:01.628Z,100745.22
2023-05-04T18:15:08.043Z,100748.03
2023-05-04T18:18:11.232Z,100746.50
2023-05-04T18:21:13.888Z,100755.19
2023-05-04T18:24:17.128Z,100753.06
2023-05-04T18:27:19.716Z,100761.97
2023-05-04T18:30:25.574Z,100760.44
2023-05-04T18:33:28.275Z,100760.97
2023-05-04T18:36:32.570Z,100766.37
2023-05-04T18:39:35.208Z,100768.19
2023-05-04T18:42:38.011Z,100780.47
2023-05-04T18:45:40.538Z,100777.66
2023-05-04T18:48:43.358Z,100777.91
2023-05-04T18:51:45.902Z,100789.87
2023-05-04T18:54:49.664Z,100799.47
2023-05-04T18:57:52.370Z,100794.44
2023-05-04T19:00:55.968Z,100790.41
2023-05-04T19:03:59.030Z,100804.09
2023-05-04T19:07:01.942Z,100803.78
2023-05-04T19:10:06.631Z,100797.13
2023-05-04T19:13:09.989Z,100806.72
2023-05-04T19:16:13.244Z,100806.91
2023-05-04T19:19:16.092Z,100811.69
2023-05-04T19:22:18.950Z,100814.31
2023-05-04T19:25:33.764Z,100811.16
2023-05-04T19:28:39.914Z,100821.53
2023-05-04T19:31:42.979Z,100818.47
2023-05-04T19:34:48.200Z,100824.81
2023-05-04T19:37:50.743Z,100831.44
2023-05-04T19:40:55.683Z,100826.94
2023-05-04T19:43:58.273Z,100829.00
2023-05-04T19:47:01.191Z,100823.44
2023-05-04T19:50:04.142Z,100824.66
2023-05-04T19:53:07.488Z,100821.28
2023-05-04T19:56:10.082Z,100817.31
2023-05-04T19:59:13.150Z,100817.50
2023-05-04T20:02:15.893Z,100818.59
2023-05-04T20:05:18.860Z,100814.81
2023-05-04T20:08:21.428Z,100820.53
2023-05-04T20:11:24.939Z,100821.16
2023-05-04T20:14:27.553Z,100825.69
2023-05-04T20:17:31.489Z,100828.47
2023-05-04T20:20:35.391Z,100827.88
2023-05-04T20:23:38.341Z,100831.41
2023-05-04T20:26:41.117Z,100838.97
2023-05-04T20:29:44.057Z,100833.34
2023-05-04T20:32:48.650Z,100836.91
2023-05-04T20:35:51.575Z,100841.75
2023-05-04T20:38:54.404Z,100844.06
2023-05-04T20:41:58.085Z,100842.34
2023-05-04T20:45:00.956Z,100858.59
2023-05-04T20:48:04.829Z,100854.84
2023-05-04T20:51:14.377Z,100859.53
2023-05-04T20:54:18.424Z,100853.59
2023-05-04T20:57:21.016Z,100853.06
2023-05-04T21:00:26.345Z,100855.62
2023-05-04T21:03:28.996Z,100847.25
2023-05-04T21:06:32.035Z,100845.03
2023-05-04T21:09:34.677Z,100853.78
2023-05-04T21:12:37.922Z,100849.53
2023-05-04T21:15:40.651Z,100854.34
2023-05-04T21:18:44.853Z,100859.78
2023-05-04T21:21:47.396Z,100857.84
2023-05-04T21:24:50.365Z,100854.50
2023-05-04T21:27:52.861Z,100856.41
2023-05-04T21:30:57.936Z,100859.38
2023-05-04T21:34:00.511Z,100858.97
2023-05-04T21:37:03.749Z,100859.66
2023-05-04T21:40:09.301Z,100856.53
2023-05-04T21:43:13.173Z,100870.97
2023-05-04T21:46:15.715Z,100864.63
2023-05-04T21:49:18.716Z,100862.53
2023-05-04T21:52:21.700Z,100862.62
2023-05-04T21:55:24.654Z,100864.09
2023-05-04T21:58:27.748Z,100866.41
2023-05-04T22:01:31.066Z,100863.75
2023-05-04T22:04:33.894Z,100868.25
2023-05-04T22:07:37.165Z,100874.16
2023-05-04T22:10:40.332Z,100883.28
2023-05-04T22:13:54.222Z,100884.91
2023-05-04T22:16:57.669Z,100887.41
2023-05-04T22:20:00.363Z,100876.56
2023-05-04T22:23:03.482Z,100885.00
2023-05-04T22:26:05.978Z,100888.69
2023-05-04T22:29:08.796Z,100884.28
2023-05-04T22:32:11.352Z,100884.72
2023-05-04T22:35:14.173Z,100883.63
2023-05-04T22:38:16.761Z,100881.31
2023-05-04T22:41:19.614Z,100880.38
2023-05-04T22:44:22.071Z,100880.66
2023-05-04T22:47:25.147Z,100877.59
2023-05-04T22:50:27.810Z,100883.12
2023-05-04T22:53:30.825Z,100872.53
2023-05-04T22:56:34.121Z,100872.62
2023-05-04T22:59:37.058Z,100876.12
2023-05-04T23:02:39.959Z,100866.94
2023-05-04T23:05:43.358Z,100867.53
2023-05-04T23:08:46.296Z,100870.59
2023-05-04T23:11:49.473Z,100871.50
2023-05-04T23:14:52.554Z,100878.25
2023-05-04T23:17:55.499Z,100871.94
2023-05-04T23:20:58.062Z,100873.81
2023-05-04T23:24:00.928Z,100872.66
2023-05-04T23:27:03.475Z,100869.16
2023-05-04T23:30:07.498Z,100868.88
2023-05-04T23:33:10.231Z,100866.03
2023-05-04T23:36:13.090Z,100863.56
2023-05-04T23:39:16.121Z,100864.25
2023-05-04T23:42:19.145Z,100854.31
2023-05-04T23:45:21.697Z,100854.63
2023-05-04T23:48:24.572Z,100855.78
2023-05-04T23:51:28.548Z,100854.16
2023-05-04T23:54:31.886Z,100851.81
2023-05-04T23:57:34.414Z,100857.97
